Huvudsida
METAR-TAF:

METAR-TAF

Flygplatser :

Bagdad, Irak

Bagdads internationella flygplats

latitud: 33-15-45N, longitud: 44-14-04E, höjd: 35 m

Aktuellt väderrapport

Denna rapport gjordes för 52 minuter sedan, klockan 04:00 UTC
Vind 5 kt från väst/nordväst
Temperatur 12°C
Fuktighet 94%
Tryck 1012 hPa
Sikt 10 km eller mer
Spridda moln på en höjd av 3000 ft

METAR: ORBI 230400Z 30005KT 9999 SCT030 12/11 Q1012 NOSIG

Tid: 07:52 (04:52 UTC)

Väderprognos

Denna rapport gjordes för 6 timmar och 52 minuter sedan, klockan 22:00 UTC
Prognos gäller från 23 kl. 00 UTC till 23 kl. 24 UTC
Vind 8 kt från väst/nordväst
Sikt: 8000 m
Spridda moln på en höjd av 3000 ft
Blir
från 23 kl. 02 UTC till 23 kl. 04 UTC
Vind 3 kt varierande vindriktning
Sikt: 5000 m
fuktdis
Blir
från 23 kl. 08 UTC till 23 kl. 11 UTC
Vind 8 kt från sydost
Sikt: 7000 m
Spridda moln på en höjd av 4000 ft

TAF: ORBI 222200Z 2300/2324 30008KT 8000 SCT030 BECMG 2302/2304 VRB03KT 5000 BR BECMG 2308/2311 13008KT 7000 SCT040

Aktuella väderrapporter och prognoser från 4000 flygplatser (METAR- och TAF-rapporter).

De tillgängliga stationerna syns som gula och röda prickar på kartan.

För musen över prickarna för att se namnen på stationerna.

Klicka sedan för att få väderrapporter och prognoser.

För att ändra kartan: Klicka på de gröna knapparna med ett svart kors på för att zooma in; den gröna knappen med ett streck på för att zooma ut; eller på de gröna pilarna för angränsande kartor.


METAR-TAF: